sensor_id;sensor_type;location;lat;lon;timestamp;temperature;humidity
76577;DHT22;65441;44.748;37.600;2023-12-20T00:00:19;9.99;90.98
76577;DHT22;65441;44.748;37.600;2023-12-20T00:02:49;9.98;90.74
76577;DHT22;65441;44.748;37.600;2023-12-20T00:05:17;9.97;90.69
76577;DHT22;65441;44.748;37.600;2023-12-20T00:07:46;9.93;91.44
76577;DHT22;65441;44.748;37.600;2023-12-20T00:10:14;9.88;91.88
76577;DHT22;65441;44.748;37.600;2023-12-20T00:12:42;9.76;91.95
76577;DHT22;65441;44.748;37.600;2023-12-20T00:15:11;9.72;92.50
76577;DHT22;65441;44.748;37.600;2023-12-20T00:17:39;9.71;93.29
76577;DHT22;65441;44.748;37.600;2023-12-20T00:20:10;9.71;93.95
76577;DHT22;65441;44.748;37.600;2023-12-20T00:22:39;9.64;93.78
76577;DHT22;65441;44.748;37.600;2023-12-20T00:25:08;9.61;94.25
76577;DHT22;65441;44.748;37.600;2023-12-20T00:27:36;9.51;94.49
76577;DHT22;65441;44.748;37.600;2023-12-20T00:30:05;9.49;94.60
76577;DHT22;65441;44.748;37.600;2023-12-20T00:32:35;9.40;94.72
76577;DHT22;65441;44.748;37.600;2023-12-20T00:35:04;9.39;94.76
76577;DHT22;65441;44.748;37.600;2023-12-20T00:37:34;9.37;94.90
76577;DHT22;65441;44.748;37.600;2023-12-20T00:40:03;9.42;95.01
76577;DHT22;65441;44.748;37.600;2023-12-20T00:42:31;9.45;95.20
76577;DHT22;65441;44.748;37.600;2023-12-20T00:45:00;9.47;94.89
76577;DHT22;65441;44.748;37.600;2023-12-20T00:47:29;9.51;94.90
76577;DHT22;65441;44.748;37.600;2023-12-20T00:49:58;9.55;94.92
76577;DHT22;65441;44.748;37.600;2023-12-20T00:52:26;9.55;94.50
76577;DHT22;65441;44.748;37.600;2023-12-20T00:54:56;9.57;94.49
76577;DHT22;65441;44.748;37.600;2023-12-20T00:57:25;9.60;94.64
76577;DHT22;65441;44.748;37.600;2023-12-20T00:59:53;9.65;94.84
76577;DHT22;65441;44.748;37.600;2023-12-20T01:02:21;9.65;94.32
76577;DHT22;65441;44.748;37.600;2023-12-20T01:04:50;9.67;94.37
76577;DHT22;65441;44.748;37.600;2023-12-20T01:07:18;9.66;94.13
76577;DHT22;65441;44.748;37.600;2023-12-20T01:09:47;9.67;93.65
76577;DHT22;65441;44.748;37.600;2023-12-20T01:12:17;9.68;93.74
76577;DHT22;65441;44.748;37.600;2023-12-20T01:14:47;9.69;93.82
76577;DHT22;65441;44.748;37.600;2023-12-20T01:17:15;9.74;94.13
76577;DHT22;65441;44.748;37.600;2023-12-20T01:19:44;9.69;93.89
76577;DHT22;65441;44.748;37.600;2023-12-20T01:22:12;9.70;93.35
76577;DHT22;65441;44.748;37.600;2023-12-20T01:24:41;9.74;93.46
76577;DHT22;65441;44.748;37.600;2023-12-20T01:27:09;9.72;93.08
76577;DHT22;65441;44.748;37.600;2023-12-20T01:29:39;9.76;92.98
76577;DHT22;65441;44.748;37.600;2023-12-20T01:32:08;9.80;92.79
76577;DHT22;65441;44.748;37.600;2023-12-20T01:34:36;9.79;92.48
76577;DHT22;65441;44.748;37.600;2023-12-20T01:37:04;9.81;92.21
76577;DHT22;65441;44.748;37.600;2023-12-20T01:39:33;9.86;92.66
76577;DHT22;65441;44.748;37.600;2023-12-20T01:42:01;9.86;92.65
76577;DHT22;65441;44.748;37.600;2023-12-20T01:44:30;9.88;92.71
76577;DHT22;65441;44.748;37.600;2023-12-20T01:47:00;9.88;92.53
76577;DHT22;65441;44.748;37.600;2023-12-20T01:49:28;9.89;92.45
76577;DHT22;65441;44.748;37.600;2023-12-20T01:51:57;9.86;91.92
76577;DHT22;65441;44.748;37.600;2023-12-20T01:54:25;9.86;92.04
76577;DHT22;65441;44.748;37.600;2023-12-20T01:56:54;9.84;92.05
76577;DHT22;65441;44.748;37.600;2023-12-20T01:59:22;9.88;92.39
76577;DHT22;65441;44.748;37.600;2023-12-20T02:01:50;9.86;92.01
76577;DHT22;65441;44.748;37.600;2023-12-20T02:04:20;9.85;92.50
76577;DHT22;65441;44.748;37.600;2023-12-20T02:06:52;9.90;92.37
76577;DHT22;65441;44.748;37.600;2023-12-20T02:09:20;9.92;91.89
76577;DHT22;65441;44.748;37.600;2023-12-20T02:11:50;9.93;91.63
76577;DHT22;65441;44.748;37.600;2023-12-20T02:14:18;9.91;91.50
76577;DHT22;65441;44.748;37.600;2023-12-20T02:16:47;9.94;91.57
76577;DHT22;65441;44.748;37.600;2023-12-20T02:19:15;9.91;91.23
76577;DHT22;65441;44.748;37.600;2023-12-20T02:21:47;9.91;91.00
76577;DHT22;65441;44.748;37.600;2023-12-20T02:24:15;9.90;91.22
76577;DHT22;65441;44.748;37.600;2023-12-20T02:26:44;9.90;91.68
76577;DHT22;65441;44.748;37.600;2023-12-20T02:29:12;9.89;91.71
76577;DHT22;65441;44.748;37.600;2023-12-20T02:31:41;9.88;91.88
76577;DHT22;65441;44.748;37.600;2023-12-20T02:34:09;9.89;92.40
76577;DHT22;65441;44.748;37.600;2023-12-20T02:36:37;9.88;92.32
76577;DHT22;65441;44.748;37.600;2023-12-20T02:39:07;9.88;92.33
76577;DHT22;65441;44.748;37.600;2023-12-20T02:41:35;9.89;92.01
76577;DHT22;65441;44.748;37.600;2023-12-20T02:44:04;9.89;90.50
76577;DHT22;65441;44.748;37.600;2023-12-20T02:46:32;9.95;90.57
76577;DHT22;65441;44.748;37.600;2023-12-20T02:49:00;9.95;89.75
76577;DHT22;65441;44.748;37.600;2023-12-20T02:51:29;9.96;90.38
76577;DHT22;65441;44.748;37.600;2023-12-20T02:53:57;9.97;90.22
76577;DHT22;65441;44.748;37.600;2023-12-20T02:56:27;9.98;90.67
76577;DHT22;65441;44.748;37.600;2023-12-20T02:58:55;9.99;90.24
76577;DHT22;65441;44.748;37.600;2023-12-20T03:01:24;9.97;90.18
76577;DHT22;65441;44.748;37.600;2023-12-20T03:03:52;10.00;89.99
76577;DHT22;65441;44.748;37.600;2023-12-20T03:06:20;10.03;89.77
76577;DHT22;65441;44.748;37.600;2023-12-20T03:08:49;10.06;89.79
76577;DHT22;65441;44.748;37.600;2023-12-20T03:11:17;10.06;90.51
76577;DHT22;65441;44.748;37.600;2023-12-20T03:13:47;10.07;90.44
76577;DHT22;65441;44.748;37.600;2023-12-20T03:16:15;10.07;90.52
76577;DHT22;65441;44.748;37.600;2023-12-20T03:18:44;10.10;90.71
76577;DHT22;65441;44.748;37.600;2023-12-20T03:21:13;10.09;89.96
76577;DHT22;65441;44.748;37.600;2023-12-20T03:23:42;10.08;89.88
76577;DHT22;65441;44.748;37.600;2023-12-20T03:26:10;10.10;89.99
76577;DHT22;65441;44.748;37.600;2023-12-20T03:28:39;10.12;90.18
76577;DHT22;65441;44.748;37.600;2023-12-20T03:31:09;10.13;90.02
76577;DHT22;65441;44.748;37.600;2023-12-20T03:33:38;10.12;89.61
76577;DHT22;65441;44.748;37.600;2023-12-20T03:36:07;10.14;89.62
76577;DHT22;65441;44.748;37.600;2023-12-20T03:38:35;10.16;90.03
76577;DHT22;65441;44.748;37.600;2023-12-20T03:41:04;10.14;89.05
76577;DHT22;65441;44.748;37.600;2023-12-20T03:43:33;10.12;88.80
76577;DHT22;65441;44.748;37.600;2023-12-20T03:46:01;10.14;88.86
76577;DHT22;65441;44.748;37.600;2023-12-20T03:48:32;10.14;88.77
76577;DHT22;65441;44.748;37.600;2023-12-20T03:51:00;10.14;88.87
76577;DHT22;65441;44.748;37.600;2023-12-20T03:53:29;10.15;89.17
76577;DHT22;65441;44.748;37.600;2023-12-20T03:55:57;10.15;88.63
76577;DHT22;65441;44.748;37.600;2023-12-20T03:58:26;10.14;87.09
76577;DHT22;65441;44.748;37.600;2023-12-20T04:00:54;10.11;87.10
76577;DHT22;65441;44.748;37.600;2023-12-20T04:03:23;10.15;87.67
76577;DHT22;65441;44.748;37.600;2023-12-20T04:05:53;10.16;87.03
76577;DHT22;65441;44.748;37.600;2023-12-20T04:08:21;10.15;88.04
76577;DHT22;65441;44.748;37.600;2023-12-20T04:10:49;10.16;87.74
76577;DHT22;65441;44.748;37.600;2023-12-20T04:13:18;10.15;87.64
76577;DHT22;65441;44.748;37.600;2023-12-20T04:15:46;10.15;87.54
76577;DHT22;65441;44.748;37.600;2023-12-20T04:18:17;10.14;87.32
76577;DHT22;65441;44.748;37.600;2023-12-20T04:20:45;10.19;87.73
76577;DHT22;65441;44.748;37.600;2023-12-20T04:23:15;10.16;87.44
76577;DHT22;65441;44.748;37.600;2023-12-20T04:25:44;10.18;87.62
76577;DHT22;65441;44.748;37.600;2023-12-20T04:28:12;10.15;88.12
76577;DHT22;65441;44.748;37.600;2023-12-20T04:30:41;10.12;87.62
76577;DHT22;65441;44.748;37.600;2023-12-20T04:33:10;10.12;87.88
76577;DHT22;65441;44.748;37.600;2023-12-20T04:35:38;10.11;87.67
76577;DHT22;65441;44.748;37.600;2023-12-20T04:38:07;10.14;88.04
76577;DHT22;65441;44.748;37.600;2023-12-20T04:40:37;10.13;87.79
76577;DHT22;65441;44.748;37.600;2023-12-20T04:43:08;10.13;87.74
76577;DHT22;65441;44.748;37.600;2023-12-20T04:45:36;10.07;86.55
76577;DHT22;65441;44.748;37.600;2023-12-20T04:48:06;10.04;86.13
76577;DHT22;65441;44.748;37.600;2023-12-20T04:50:34;10.00;86.74
76577;DHT22;65441;44.748;37.600;2023-12-20T04:53:03;9.99;87.26
76577;DHT22;65441;44.748;37.600;2023-12-20T04:55:32;9.96;87.34
76577;DHT22;65441;44.748;37.600;2023-12-20T04:58:02;9.96;88.06
76577;DHT22;65441;44.748;37.600;2023-12-20T05:00:30;9.97;88.21
76577;DHT22;65441;44.748;37.600;2023-12-20T05:02:59;9.98;88.35
76577;DHT22;65441;44.748;37.600;2023-12-20T05:05:27;9.97;88.10
76577;DHT22;65441;44.748;37.600;2023-12-20T05:07:56;9.96;87.14
76577;DHT22;65441;44.748;37.600;2023-12-20T05:10:24;9.95;86.82
76577;DHT22;65441;44.748;37.600;2023-12-20T05:12:53;9.95;86.92
76577;DHT22;65441;44.748;37.600;2023-12-20T05:15:23;9.97;87.57
76577;DHT22;65441;44.748;37.600;2023-12-20T05:17:52;9.99;88.09
76577;DHT22;65441;44.748;37.600;2023-12-20T05:20:20;10.01;88.25
76577;DHT22;65441;44.748;37.600;2023-12-20T05:22:50;10.00;88.29
76577;DHT22;65441;44.748;37.600;2023-12-20T05:25:18;10.00;88.28
76577;DHT22;65441;44.748;37.600;2023-12-20T05:27:47;10.00;87.80
76577;DHT22;65441;44.748;37.600;2023-12-20T05:30:16;10.00;87.54
76577;DHT22;65441;44.748;37.600;2023-12-20T05:32:46;10.00;87.94
76577;DHT22;65441;44.748;37.600;2023-12-20T05:35:14;10.04;87.79
76577;DHT22;65441;44.748;37.600;2023-12-20T05:37:43;10.04;88.41
76577;DHT22;65441;44.748;37.600;2023-12-20T05:40:11;10.09;87.98
76577;DHT22;65441;44.748;37.600;2023-12-20T05:42:40;10.11;87.91
76577;DHT22;65441;44.748;37.600;2023-12-20T05:45:09;10.15;87.64
76577;DHT22;65441;44.748;37.600;2023-12-20T05:47:38;10.15;87.25
76577;DHT22;65441;44.748;37.600;2023-12-20T05:50:08;10.19;87.01
76577;DHT22;65441;44.748;37.600;2023-12-20T05:52:36;10.16;86.60
76577;DHT22;65441;44.748;37.600;2023-12-20T05:55:05;10.15;86.57
76577;DHT22;65441;44.748;37.600;2023-12-20T05:57:34;10.15;86.52
76577;DHT22;65441;44.748;37.600;2023-12-20T06:00:03;10.18;86.31
76577;DHT22;65441;44.748;37.600;2023-12-20T06:02:39;10.21;86.09
76577;DHT22;65441;44.748;37.600;2023-12-20T06:05:09;10.26;85.80
76577;DHT22;65441;44.748;37.600;2023-12-20T06:07:38;10.34;85.56
76577;DHT22;65441;44.748;37.600;2023-12-20T06:10:07;10.40;84.88
76577;DHT22;65441;44.748;37.600;2023-12-20T06:12:35;11.02;83.42
76577;DHT22;65441;44.748;37.600;2023-12-20T06:15:04;10.75;83.39
76577;DHT22;65441;44.748;37.600;2023-12-20T06:17:32;10.67;83.82
76577;DHT22;65441;44.748;37.600;2023-12-20T06:20:01;10.59;84.03
76577;DHT22;65441;44.748;37.600;2023-12-20T06:22:36;10.53;83.88
76577;DHT22;65441;44.748;37.600;2023-12-20T06:25:04;10.48;83.25
76577;DHT22;65441;44.748;37.600;2023-12-20T06:27:33;10.42;82.79
76577;DHT22;65441;44.748;37.600;2023-12-20T06:30:02;10.43;82.29
76577;DHT22;65441;44.748;37.600;2023-12-20T06:32:31;10.54;82.91
76577;DHT22;65441;44.748;37.600;2023-12-20T06:34:59;10.53;82.75
76577;DHT22;65441;44.748;37.600;2023-12-20T06:37:28;11.22;80.94
76577;DHT22;65441;44.748;37.600;2023-12-20T06:39:58;11.73;78.30
76577;DHT22;65441;44.748;37.600;2023-12-20T06:42:26;11.75;76.96
76577;DHT22;65441;44.748;37.600;2023-12-20T06:44:55;11.70;77.45
76577;DHT22;65441;44.748;37.600;2023-12-20T06:47:23;12.27;74.83
76577;DHT22;65441;44.748;37.600;2023-12-20T06:49:53;11.56;77.92
76577;DHT22;65441;44.748;37.600;2023-12-20T06:52:21;11.70;77.89
76577;DHT22;65441;44.748;37.600;2023-12-20T06:54:50;11.54;78.44
76577;DHT22;65441;44.748;37.600;2023-12-20T06:57:20;11.37;78.77
76577;DHT22;65441;44.748;37.600;2023-12-20T06:59:48;12.18;75.71
76577;DHT22;65441;44.748;37.600;2023-12-20T07:02:16;11.49;79.49
76577;DHT22;65441;44.748;37.600;2023-12-20T07:04:45;11.29;79.87
76577;DHT22;65441;44.748;37.600;2023-12-20T07:07:13;11.17;80.49
76577;DHT22;65441;44.748;37.600;2023-12-20T07:09:42;11.00;80.79
76577;DHT22;65441;44.748;37.600;2023-12-20T07:12:10;10.99;80.86
76577;DHT22;65441;44.748;37.600;2023-12-20T07:14:40;10.93;81.30
76577;DHT22;65441;44.748;37.600;2023-12-20T07:17:09;10.94;82.01
76577;DHT22;65441;44.748;37.600;2023-12-20T07:19:38;10.93;81.95
76577;DHT22;65441;44.748;37.600;2023-12-20T07:22:07;10.95;80.66
76577;DHT22;65441;44.748;37.600;2023-12-20T07:24:36;10.88;80.74
76577;DHT22;65441;44.748;37.600;2023-12-20T07:27:04;10.88;80.60
76577;DHT22;65441;44.748;37.600;2023-12-20T07:29:33;10.85;81.76
76577;DHT22;65441;44.748;37.600;2023-12-20T07:32:03;10.88;81.81
76577;DHT22;65441;44.748;37.600;2023-12-20T07:34:32;11.08;81.66
76577;DHT22;65441;44.748;37.600;2023-12-20T07:37:00;11.08;81.97
76577;DHT22;65441;44.748;37.600;2023-12-20T07:39:28;11.10;81.21
76577;DHT22;65441;44.748;37.600;2023-12-20T07:41:56;11.04;80.56
76577;DHT22;65441;44.748;37.600;2023-12-20T07:44:25;10.95;80.88
76577;DHT22;65441;44.748;37.600;2023-12-20T07:46:53;11.03;81.20
76577;DHT22;65441;44.748;37.600;2023-12-20T07:49:23;11.12;81.00
76577;DHT22;65441;44.748;37.600;2023-12-20T07:51:51;11.10;80.40
76577;DHT22;65441;44.748;37.600;2023-12-20T07:54:20;11.13;79.66
76577;DHT22;65441;44.748;37.600;2023-12-20T07:56:49;11.30;79.79
76577;DHT22;65441;44.748;37.600;2023-12-20T07:59:17;11.40;79.17
76577;DHT22;65441;44.748;37.600;2023-12-20T08:01:45;11.29;78.87
76577;DHT22;65441;44.748;37.600;2023-12-20T08:04:14;11.22;79.60
76577;DHT22;65441;44.748;37.600;2023-12-20T08:06:44;11.23;79.08
76577;DHT22;65441;44.748;37.600;2023-12-20T08:09:12;11.20;80.88
76577;DHT22;65441;44.748;37.600;2023-12-20T08:11:44;11.38;80.72
76577;DHT22;65441;44.748;37.600;2023-12-20T08:14:13;11.57;80.27
76577;DHT22;65441;44.748;37.600;2023-12-20T08:16:41;11.66;79.93
76577;DHT22;65441;44.748;37.600;2023-12-20T08:19:09;11.44;78.69
76577;DHT22;65441;44.748;37.600;2023-12-20T08:21:38;11.28;79.14
76577;DHT22;65441;44.748;37.600;2023-12-20T08:24:08;11.28;80.46
76577;DHT22;65441;44.748;37.600;2023-12-20T08:26:36;11.32;80.75
76577;DHT22;65441;44.748;37.600;2023-12-20T08:29:04;11.25;80.49
76577;DHT22;65441;44.748;37.600;2023-12-20T08:31:33;11.29;79.95
76577;DHT22;65441;44.748;37.600;2023-12-20T08:34:01;11.23;80.61
76577;DHT22;65441;44.748;37.600;2023-12-20T08:36:30;11.18;81.07
76577;DHT22;65441;44.748;37.600;2023-12-20T08:38:58;11.29;80.46
76577;DHT22;65441;44.748;37.600;2023-12-20T08:41:29;11.23;80.08
76577;DHT22;65441;44.748;37.600;2023-12-20T08:43:57;11.26;80.32
76577;DHT22;65441;44.748;37.600;2023-12-20T08:46:25;11.15;80.88
76577;DHT22;65441;44.748;37.600;2023-12-20T08:48:54;11.27;81.36
76577;DHT22;65441;44.748;37.600;2023-12-20T08:51:22;11.40;80.52
76577;DHT22;65441;44.748;37.600;2023-12-20T08:53:52;11.39;79.84
76577;DHT22;65441;44.748;37.600;2023-12-20T08:56:20;11.25;79.64
76577;DHT22;65441;44.748;37.600;2023-12-20T08:58:50;11.31;80.81
76577;DHT22;65441;44.748;37.600;2023-12-20T09:01:18;11.44;80.09
76577;DHT22;65441;44.748;37.600;2023-12-20T09:03:47;11.44;79.37
76577;DHT22;65441;44.748;37.600;2023-12-20T09:06:15;11.34;79.98
76577;DHT22;65441;44.748;37.600;2023-12-20T09:08:43;11.31;79.80
76577;DHT22;65441;44.748;37.600;2023-12-20T09:11:12;11.51;79.23
76577;DHT22;65441;44.748;37.600;2023-12-20T09:13:40;11.54;79.45
76577;DHT22;65441;44.748;37.600;2023-12-20T09:16:10;11.51;79.82
76577;DHT22;65441;44.748;37.600;2023-12-20T09:18:39;11.49;81.01
76577;DHT22;65441;44.748;37.600;2023-12-20T09:21:08;11.76;79.82
76577;DHT22;65441;44.748;37.600;2023-12-20T09:23:36;11.68;78.75
76577;DHT22;65441;44.748;37.600;2023-12-20T09:26:05;11.59;79.88
76577;DHT22;65441;44.748;37.600;2023-12-20T09:28:33;11.60;80.14
76577;DHT22;65441;44.748;37.600;2023-12-20T09:31:04;11.58;79.10
76577;DHT22;65441;44.748;37.600;2023-12-20T09:33:35;11.75;79.26
76577;DHT22;65441;44.748;37.600;2023-12-20T09:36:03;11.82;79.73
76577;DHT22;65441;44.748;37.600;2023-12-20T09:38:32;11.99;78.15
76577;DHT22;65441;44.748;37.600;2023-12-20T09:41:00;12.27;76.53
76577;DHT22;65441;44.748;37.600;2023-12-20T09:43:30;12.90;74.21
76577;DHT22;65441;44.748;37.600;2023-12-20T09:46:00;12.74;73.80
76577;DHT22;65441;44.748;37.600;2023-12-20T09:48:31;12.49;74.95
76577;DHT22;65441;44.748;37.600;2023-12-20T09:51:02;12.32;75.83
76577;DHT22;65441;44.748;37.600;2023-12-20T09:53:31;13.04;73.31
76577;DHT22;65441;44.748;37.600;2023-12-20T09:56:01;13.26;71.92
76577;DHT22;65441;44.748;37.600;2023-12-20T09:58:30;13.60;71.73
76577;DHT22;65441;44.748;37.600;2023-12-20T10:00:59;13.26;72.11
76577;DHT22;65441;44.748;37.600;2023-12-20T10:03:27;13.11;72.63
76577;DHT22;65441;44.748;37.600;2023-12-20T10:05:57;12.90;73.79
76577;DHT22;65441;44.748;37.600;2023-12-20T10:08:27;12.72;74.60
76577;DHT22;65441;44.748;37.600;2023-12-20T10:10:56;12.51;75.25
76577;DHT22;65441;44.748;37.600;2023-12-20T10:13:29;12.59;75.38
76577;DHT22;65441;44.748;37.600;2023-12-20T10:15:57;12.42;76.24
76577;DHT22;65441;44.748;37.600;2023-12-20T10:18:26;12.41;76.41
76577;DHT22;65441;44.748;37.600;2023-12-20T10:20:56;12.25;76.68
76577;DHT22;65441;44.748;37.600;2023-12-20T10:23:27;12.25;77.01
76577;DHT22;65441;44.748;37.600;2023-12-20T10:25:56;12.47;75.05
76577;DHT22;65441;44.748;37.600;2023-12-20T10:28:25;12.47;75.97
76577;DHT22;65441;44.748;37.600;2023-12-20T10:30:54;12.33;76.53
76577;DHT22;65441;44.748;37.600;2023-12-20T10:33:24;12.35;77.03
76577;DHT22;65441;44.748;37.600;2023-12-20T10:35:53;12.32;76.49
76577;DHT22;65441;44.748;37.600;2023-12-20T10:38:22;12.15;77.00
76577;DHT22;65441;44.748;37.600;2023-12-20T10:40:56;12.05;77.89
76577;DHT22;65441;44.748;37.600;2023-12-20T10:43:26;11.97;77.44
76577;DHT22;65441;44.748;37.600;2023-12-20T10:45:57;11.93;78.18
76577;DHT22;65441;44.748;37.600;2023-12-20T10:48:25;11.91;78.72
76577;DHT22;65441;44.748;37.600;2023-12-20T10:50:57;12.01;78.82
76577;DHT22;65441;44.748;37.600;2023-12-20T10:53:25;11.99;77.61
76577;DHT22;65441;44.748;37.600;2023-12-20T10:55:56;11.90;77.98
76577;DHT22;65441;44.748;37.600;2023-12-20T10:58:28;11.88;78.40
76577;DHT22;65441;44.748;37.600;2023-12-20T11:01:00;11.94;77.80
76577;DHT22;65441;44.748;37.600;2023-12-20T11:03:34;11.91;77.21
76577;DHT22;65441;44.748;37.600;2023-12-20T11:06:05;11.79;77.91
76577;DHT22;65441;44.748;37.600;2023-12-20T11:08:39;11.87;78.56
76577;DHT22;65441;44.748;37.600;2023-12-20T11:11:17;11.89;78.69
76577;DHT22;65441;44.748;37.600;2023-12-20T11:13:57;11.87;78.27
76577;DHT22;65441;44.748;37.600;2023-12-20T11:16:26;11.82;78.79
76577;DHT22;65441;44.748;37.600;2023-12-20T11:18:54;11.88;78.62
76577;DHT22;65441;44.748;37.600;2023-12-20T11:21:23;11.82;79.01
76577;DHT22;65441;44.748;37.600;2023-12-20T11:23:52;11.82;78.67
76577;DHT22;65441;44.748;37.600;2023-12-20T11:26:27;11.75;79.30
76577;DHT22;65441;44.748;37.600;2023-12-20T11:29:30;11.70;78.66
76577;DHT22;65441;44.748;37.600;2023-12-20T11:32:00;11.62;78.53
76577;DHT22;65441;44.748;37.600;2023-12-20T11:34:32;11.58;79.31
76577;DHT22;65441;44.748;37.600;2023-12-20T11:37:02;11.51;78.72
76577;DHT22;65441;44.748;37.600;2023-12-20T11:39:31;11.61;79.08
76577;DHT22;65441;44.748;37.600;2023-12-20T11:42:06;11.61;79.24
76577;DHT22;65441;44.748;37.600;2023-12-20T11:44:36;11.58;78.15
76577;DHT22;65441;44.748;37.600;2023-12-20T11:47:05;11.54;78.50
76577;DHT22;65441;44.748;37.600;2023-12-20T11:49:33;11.46;78.90
76577;DHT22;65441;44.748;37.600;2023-12-20T11:52:02;11.41;80.17
76577;DHT22;65441;44.748;37.600;2023-12-20T11:54:31;11.40;80.49
76577;DHT22;65441;44.748;37.600;2023-12-20T11:57:00;11.41;79.53
76577;DHT22;65441;44.748;37.600;2023-12-20T11:59:30;11.47;79.85
76577;DHT22;65441;44.748;37.600;2023-12-20T12:01:59;11.47;79.78
76577;DHT22;65441;44.748;37.600;2023-12-20T12:04:28;11.56;79.68
76577;DHT22;65441;44.748;37.600;2023-12-20T12:06:56;11.56;79.60
76577;DHT22;65441;44.748;37.600;2023-12-20T12:09:25;11.56;79.55
76577;DHT22;65441;44.748;37.600;2023-12-20T12:11:54;11.57;79.17
76577;DHT22;65441;44.748;37.600;2023-12-20T12:14:22;11.67;79.40
76577;DHT22;65441;44.748;37.600;2023-12-20T12:16:52;11.66;78.63
76577;DHT22;65441;44.748;37.600;2023-12-20T12:19:22;11.60;78.91
76577;DHT22;65441;44.748;37.600;2023-12-20T12:21:51;11.69;78.30
76577;DHT22;65441;44.748;37.600;2023-12-20T12:24:20;11.63;78.80
76577;DHT22;65441;44.748;37.600;2023-12-20T12:26:52;11.54;79.32
76577;DHT22;65441;44.748;37.600;2023-12-20T12:29:21;11.49;79.69
76577;DHT22;65441;44.748;37.600;2023-12-20T12:31:52;11.43;80.42
76577;DHT22;65441;44.748;37.600;2023-12-20T12:34:21;11.43;80.26
76577;DHT22;65441;44.748;37.600;2023-12-20T12:36:49;11.31;80.44
76577;DHT22;65441;44.748;37.600;2023-12-20T12:39:18;11.32;80.51
76577;DHT22;65441;44.748;37.600;2023-12-20T12:41:47;11.32;80.46
76577;DHT22;65441;44.748;37.600;2023-12-20T12:44:15;11.24;81.12
76577;DHT22;65441;44.748;37.600;2023-12-20T12:46:44;11.26;81.54
76577;DHT22;65441;44.748;37.600;2023-12-20T12:49:15;11.27;81.75
76577;DHT22;65441;44.748;37.600;2023-12-20T12:51:44;11.20;81.52
76577;DHT22;65441;44.748;37.600;2023-12-20T12:54:12;11.20;82.02
76577;DHT22;65441;44.748;37.600;2023-12-20T12:56:43;11.18;81.83
76577;DHT22;65441;44.748;37.600;2023-12-20T12:59:11;11.19;82.36
76577;DHT22;65441;44.748;37.600;2023-12-20T13:01:40;11.19;82.39
76577;DHT22;65441;44.748;37.600;2023-12-20T13:04:08;11.18;82.46
76577;DHT22;65441;44.748;37.600;2023-12-20T13:06:39;11.16;82.79
76577;DHT22;65441;44.748;37.600;2023-12-20T13:09:09;11.17;82.98
76577;DHT22;65441;44.748;37.600;2023-12-20T13:11:37;11.14;83.29
76577;DHT22;65441;44.748;37.600;2023-12-20T13:14:07;11.08;83.35
76577;DHT22;65441;44.748;37.600;2023-12-20T13:16:37;11.02;83.26
76577;DHT22;65441;44.748;37.600;2023-12-20T13:19:06;10.96;83.15
76577;DHT22;65441;44.748;37.600;2023-12-20T13:21:35;10.95;82.32
76577;DHT22;65441;44.748;37.600;2023-12-20T13:24:05;10.95;82.09
76577;DHT22;65441;44.748;37.600;2023-12-20T13:26:34;10.92;82.35
76577;DHT22;65441;44.748;37.600;2023-12-20T13:29:03;10.93;82.10
76577;DHT22;65441;44.748;37.600;2023-12-20T13:31:31;10.88;81.49
76577;DHT22;65441;44.748;37.600;2023-12-20T13:34:00;10.82;81.60
76577;DHT22;65441;44.748;37.600;2023-12-20T13:36:28;10.79;81.79
76577;DHT22;65441;44.748;37.600;2023-12-20T13:38:57;10.73;82.04
76577;DHT22;65441;44.748;37.600;2023-12-20T13:41:27;10.70;81.89
76577;DHT22;65441;44.748;37.600;2023-12-20T13:43:55;10.73;81.83
76577;DHT22;65441;44.748;37.600;2023-12-20T13:46:24;10.65;82.01
76577;DHT22;65441;44.748;37.600;2023-12-20T13:48:52;10.66;82.07
76577;DHT22;65441;44.748;37.600;2023-12-20T13:51:21;10.63;82.61
76577;DHT22;65441;44.748;37.600;2023-12-20T13:53:49;10.57;82.84
76577;DHT22;65441;44.748;37.600;2023-12-20T13:56:18;10.53;82.36
76577;DHT22;65441;44.748;37.600;2023-12-20T13:58:48;10.49;82.48
76577;DHT22;65441;44.748;37.600;2023-12-20T14:01:17;10.44;82.31
76577;DHT22;65441;44.748;37.600;2023-12-20T14:03:46;10.42;82.47
76577;DHT22;65441;44.748;37.600;2023-12-20T14:06:14;10.38;82.64
76577;DHT22;65441;44.748;37.600;2023-12-20T14:08:43;10.37;82.65
76577;DHT22;65441;44.748;37.600;2023-12-20T14:11:12;10.34;82.61
76577;DHT22;65441;44.748;37.600;2023-12-20T14:13:42;10.29;82.45
76577;DHT22;65441;44.748;37.600;2023-12-20T14:16:12;10.26;82.49
76577;DHT22;65441;44.748;37.600;2023-12-20T14:18:41;10.26;82.42
76577;DHT22;65441;44.748;37.600;2023-12-20T14:21:10;10.23;82.58
76577;DHT22;65441;44.748;37.600;2023-12-20T14:23:39;10.21;82.58
76577;DHT22;65441;44.748;37.600;2023-12-20T14:26:07;10.18;82.42
76577;DHT22;65441;44.748;37.600;2023-12-20T14:28:41;10.15;82.94
76577;DHT22;65441;44.748;37.600;2023-12-20T14:31:09;10.14;82.92
76577;DHT22;65441;44.748;37.600;2023-12-20T14:33:40;10.14;82.93
76577;DHT22;65441;44.748;37.600;2023-12-20T14:36:09;10.09;83.06
76577;DHT22;65441;44.748;37.600;2023-12-20T14:38:37;10.05;83.43
76577;DHT22;65441;44.748;37.600;2023-12-20T14:41:06;10.05;83.23
76577;DHT22;65441;44.748;37.600;2023-12-20T14:43:35;10.04;83.34
76577;DHT22;65441;44.748;37.600;2023-12-20T14:46:04;10.06;83.20
76577;DHT22;65441;44.748;37.600;2023-12-20T14:48:33;10.04;83.29
76577;DHT22;65441;44.748;37.600;2023-12-20T14:51:03;10.03;83.42
76577;DHT22;65441;44.748;37.600;2023-12-20T14:53:31;9.98;83.74
76577;DHT22;65441;44.748;37.600;2023-12-20T14:56:03;9.98;83.97
76577;DHT22;65441;44.748;37.600;2023-12-20T14:58:32;9.95;84.24
76577;DHT22;65441;44.748;37.600;2023-12-20T15:01:01;9.94;84.67
76577;DHT22;65441;44.748;37.600;2023-12-20T15:03:29;9.92;84.65
76577;DHT22;65441;44.748;37.600;2023-12-20T15:05:57;9.90;85.07
76577;DHT22;65441;44.748;37.600;2023-12-20T15:08:28;9.91;85.23
76577;DHT22;65441;44.748;37.600;2023-12-20T15:10:57;9.91;85.26
76577;DHT22;65441;44.748;37.600;2023-12-20T15:13:26;9.88;85.21
76577;DHT22;65441;44.748;37.600;2023-12-20T15:15:54;9.83;85.51
76577;DHT22;65441;44.748;37.600;2023-12-20T15:18:23;9.86;85.38
76577;DHT22;65441;44.748;37.600;2023-12-20T15:20:51;9.85;86.04
76577;DHT22;65441;44.748;37.600;2023-12-20T15:23:20;9.85;86.20
76577;DHT22;65441;44.748;37.600;2023-12-20T15:25:54;9.81;86.12
76577;DHT22;65441;44.748;37.600;2023-12-20T15:28:22;9.80;86.46
76577;DHT22;65441;44.748;37.600;2023-12-20T15:30:51;9.82;86.46